createdAt,value
2022-10-05T00:00:06.322Z,9.13
2022-10-05T00:02:35.527Z,8.33
2022-10-05T00:05:19.700Z,8.37
2022-10-05T00:07:49.319Z,8.67
2022-10-05T00:10:20.487Z,8.47
2022-10-05T00:12:50.464Z,8.20
2022-10-05T00:15:26.735Z,8.40
2022-10-05T00:17:55.002Z,8.03
2022-10-05T00:20:27.173Z,8.27
2022-10-05T00:22:58.675Z,7.63
2022-10-05T00:25:27.479Z,8.23
2022-10-05T00:27:57.965Z,8.07
2022-10-05T00:30:33.953Z,7.50
2022-10-05T00:33:02.096Z,7.77
2022-10-05T00:35:31.681Z,7.87
2022-10-05T00:37:59.825Z,7.47
2022-10-05T00:40:39.493Z,7.17
2022-10-05T00:43:24.496Z,6.77
2022-10-05T00:45:59.155Z,7.37
2022-10-05T00:48:38.804Z,6.77
2022-10-05T00:51:25.564Z,6.90
2022-10-05T00:54:05.423Z,7.13
2022-10-05T00:56:47.823Z,7.43
2022-10-05T00:59:29.372Z,6.80
2022-10-05T01:02:04.672Z,7.40
2022-10-05T01:04:41.123Z,7.40
2022-10-05T01:07:16.481Z,6.83
2022-10-05T01:09:51.381Z,7.20
2022-10-05T01:12:27.121Z,7.57
2022-10-05T01:15:04.356Z,6.57
2022-10-05T01:17:41.903Z,6.77
2022-10-05T01:20:33.578Z,6.73
2022-10-05T01:23:30.292Z,6.33
2022-10-05T01:26:16.583Z,6.30
2022-10-05T01:28:53.467Z,7.20
2022-10-05T01:31:30.595Z,7.10
2022-10-05T01:34:11.631Z,7.47
2022-10-05T01:36:53.507Z,6.93
2022-10-05T01:39:30.509Z,7.33
2022-10-05T01:42:08.394Z,7.20
2022-10-05T01:44:45.934Z,7.43
2022-10-05T01:47:21.564Z,6.93
2022-10-05T01:50:01.187Z,7.47
2022-10-05T01:52:40.570Z,7.10
2022-10-05T01:55:20.501Z,7.37
2022-10-05T01:58:08.050Z,7.87
2022-10-05T02:00:46.982Z,7.63
2022-10-05T02:03:19.336Z,7.53
2022-10-05T02:05:54.534Z,7.33
2022-10-05T02:08:31.594Z,7.60
2022-10-05T02:11:03.389Z,7.60
2022-10-05T02:13:38.479Z,8.00
2022-10-05T02:16:15.534Z,8.33
2022-10-05T02:18:51.578Z,7.93
2022-10-05T02:21:22.563Z,7.60
2022-10-05T02:23:56.694Z,7.07
2022-10-05T02:26:26.369Z,7.40
2022-10-05T02:29:00.530Z,7.73
2022-10-05T02:31:58.764Z,8.07
2022-10-05T02:34:30.556Z,7.67
2022-10-05T02:37:19.560Z,7.17
2022-10-05T02:40:06.205Z,7.80
2022-10-05T02:42:44.519Z,7.87
2022-10-05T02:45:24.216Z,6.77
2022-10-05T02:48:04.641Z,8.07
2022-10-05T02:50:44.385Z,7.73
2022-10-05T02:53:22.718Z,8.17
2022-10-05T02:56:06.277Z,7.07
2022-10-05T02:58:42.571Z,8.23
2022-10-05T03:01:16.750Z,8.57
2022-10-05T03:03:52.545Z,7.63
2022-10-05T03:06:27.347Z,7.37
2022-10-05T03:09:03.517Z,7.93
2022-10-05T03:11:42.568Z,7.83
2022-10-05T03:14:19.492Z,7.70
2022-10-05T03:17:01.602Z,7.77
2022-10-05T03:19:56.903Z,8.27
2022-10-05T03:22:36.668Z,7.83
2022-10-05T03:25:26.168Z,7.60
2022-10-05T03:28:04.613Z,8.33
2022-10-05T03:30:40.391Z,8.33
2022-10-05T03:33:15.630Z,9.17
2022-10-05T03:35:52.626Z,8.57
2022-10-05T03:38:29.072Z,8.80
2022-10-05T03:41:04.768Z,9.10
2022-10-05T03:43:53.711Z,8.37
2022-10-05T03:46:34.440Z,8.80
2022-10-05T03:49:12.558Z,8.43
2022-10-05T03:51:51.396Z,8.37
2022-10-05T03:54:25.874Z,8.10
2022-10-05T03:56:59.334Z,8.23
2022-10-05T03:59:34.674Z,8.50
2022-10-05T04:02:07.172Z,7.90
2022-10-05T04:04:40.875Z,8.63
2022-10-05T04:07:27.586Z,8.00
2022-10-05T04:09:57.655Z,8.33
2022-10-05T04:12:33.564Z,7.77
2022-10-05T04:15:08.131Z,7.93
2022-10-05T04:17:41.290Z,7.80
2022-10-05T04:20:18.560Z,8.70
2022-10-05T04:23:03.420Z,8.80
2022-10-05T04:25:38.375Z,8.60
2022-10-05T04:28:15.664Z,8.03
2022-10-05T04:30:48.586Z,8.37
2022-10-05T04:33:17.034Z,8.80
2022-10-05T04:36:15.022Z,8.33
2022-10-05T04:38:53.012Z,10.13
2022-10-05T04:41:48.650Z,8.30
2022-10-05T04:44:49.391Z,9.13
2022-10-05T04:47:41.199Z,8.60
2022-10-05T04:50:19.588Z,8.47
2022-10-05T04:53:11.410Z,9.10
2022-10-05T04:55:51.843Z,8.00
2022-10-05T04:58:28.790Z,8.30
2022-10-05T05:01:09.449Z,8.33
2022-10-05T05:04:06.684Z,7.70
2022-10-05T05:06:41.312Z,10.47
2022-10-05T05:09:34.416Z,8.57
2022-10-05T05:12:21.573Z,7.37
2022-10-05T05:15:11.454Z,8.27
2022-10-05T05:18:00.546Z,8.97
2022-10-05T05:20:43.705Z,7.90
2022-10-05T05:23:19.553Z,8.43
2022-10-05T05:25:59.411Z,7.57
2022-10-05T05:28:41.621Z,7.50
2022-10-05T05:31:16.488Z,7.97
2022-10-05T05:33:58.098Z,7.87
2022-10-05T05:36:42.281Z,8.10
2022-10-05T05:39:26.478Z,8.33
2022-10-05T05:42:02.777Z,7.50
2022-10-05T05:44:40.422Z,7.73
2022-10-05T05:47:21.739Z,8.07
2022-10-05T05:50:19.425Z,8.10
2022-10-05T05:52:55.344Z,7.70
2022-10-05T05:55:30.555Z,8.13
2022-10-05T05:58:07.629Z,8.07
2022-10-05T06:00:42.712Z,8.17
2022-10-05T06:03:15.561Z,7.87
2022-10-05T06:05:49.635Z,8.87
2022-10-05T06:08:25.636Z,7.57
2022-10-05T06:11:05.887Z,7.53
2022-10-05T06:13:44.570Z,8.27
2022-10-05T06:16:22.253Z,7.63
2022-10-05T06:18:56.565Z,7.73
2022-10-05T06:21:33.325Z,8.10
2022-10-05T06:24:06.468Z,7.00
2022-10-05T06:26:56.530Z,8.07
2022-10-05T06:29:33.727Z,7.43
2022-10-05T06:32:10.886Z,7.57
2022-10-05T06:35:01.673Z,7.17
2022-10-05T06:37:45.589Z,6.87
2022-10-05T06:40:22.772Z,6.57
2022-10-05T06:43:12.684Z,6.80
2022-10-05T06:46:08.478Z,6.87
2022-10-05T06:49:15.070Z,6.70
2022-10-05T06:52:16.765Z,6.87
2022-10-05T06:54:55.509Z,6.63
2022-10-05T06:57:44.727Z,6.87
2022-10-05T07:00:20.019Z,6.43
2022-10-05T07:02:57.649Z,6.73
2022-10-05T07:05:49.140Z,5.87
2022-10-05T07:08:25.699Z,6.47
2022-10-05T07:11:05.727Z,6.63
2022-10-05T07:13:59.421Z,6.00
2022-10-05T07:16:37.759Z,6.30
2022-10-05T07:19:29.504Z,6.27
2022-10-05T07:22:34.491Z,6.10
2022-10-05T07:25:14.451Z,6.47
2022-10-05T07:27:52.820Z,6.60
2022-10-05T07:30:23.608Z,6.10
2022-10-05T07:33:01.623Z,6.10
2022-10-05T07:35:59.363Z,5.63
2022-10-05T07:38:34.479Z,5.97
2022-10-05T07:41:07.484Z,6.37
2022-10-05T07:44:01.639Z,5.97
2022-10-05T07:46:45.983Z,6.33
2022-10-05T07:49:22.708Z,5.70
2022-10-05T07:52:00.603Z,5.83
2022-10-05T07:54:45.355Z,5.40
2022-10-05T07:57:22.765Z,5.20
2022-10-05T07:59:58.487Z,4.90
2022-10-05T08:02:32.789Z,5.50
2022-10-05T08:05:05.705Z,4.93
2022-10-05T08:07:37.710Z,5.33
2022-10-05T08:10:24.120Z,5.67
2022-10-05T08:13:01.493Z,10.77
2022-10-05T08:15:35.719Z,5.67
2022-10-05T08:18:12.520Z,5.70
2022-10-05T08:20:46.697Z,5.30
2022-10-05T08:23:24.693Z,5.63
2022-10-05T08:26:06.536Z,5.40
2022-10-05T08:28:41.761Z,5.70
2022-10-05T08:31:18.738Z,4.63
2022-10-05T08:33:56.701Z,4.47
2022-10-05T08:36:37.951Z,5.10
2022-10-05T08:39:10.652Z,5.47
2022-10-05T08:42:15.335Z,4.80
2022-10-05T08:45:12.527Z,4.73
2022-10-05T08:48:19.728Z,4.43
2022-10-05T08:51:24.649Z,4.40
2022-10-05T08:54:19.490Z,4.30
2022-10-05T08:56:55.616Z,4.87
2022-10-05T08:59:57.704Z,4.60
2022-10-05T09:02:32.787Z,4.70
2022-10-05T09:05:25.541Z,4.53
2022-10-05T09:08:25.853Z,5.03
2022-10-05T09:11:05.014Z,5.13
2022-10-05T09:14:15.117Z,4.80
2022-10-05T09:16:58.782Z,4.07
2022-10-05T09:19:53.554Z,4.60
2022-10-05T09:22:37.300Z,4.13
2022-10-05T09:25:20.399Z,4.07
2022-10-05T09:27:57.242Z,3.77
2022-10-05T09:30:45.796Z,3.90
2022-10-05T09:33:52.040Z,6.67
2022-10-05T09:36:46.717Z,5.90
2022-10-05T09:39:39.784Z,3.50
2022-10-05T09:42:38.714Z,3.50
2022-10-05T09:45:47.180Z,3.60
2022-10-05T09:48:59.747Z,3.50
2022-10-05T09:52:06.950Z,3.93
2022-10-05T09:55:11.353Z,3.60
2022-10-05T09:58:31.956Z,3.93
2022-10-05T10:01:32.563Z,5.60
2022-10-05T10:04:14.577Z,6.50
2022-10-05T10:07:21.169Z,3.87
2022-10-05T10:10:15.391Z,3.90
2022-10-05T10:13:01.748Z,3.30
2022-10-05T10:15:44.769Z,4.87
2022-10-05T10:18:33.775Z,3.27
2022-10-05T10:21:36.725Z,3.00
2022-10-05T10:24:17.119Z,3.03
2022-10-05T10:27:12.786Z,3.30
2022-10-05T10:30:19.019Z,3.20
2022-10-05T10:33:24.575Z,3.08
2022-10-05T10:36:02.993Z,3.33
2022-10-05T10:38:41.738Z,3.33
2022-10-05T10:41:30.772Z,3.28
2022-10-05T10:44:38.099Z,3.10
2022-10-05T10:47:39.739Z,2.90
2022-10-05T10:50:51.820Z,3.40
2022-10-05T10:53:42.604Z,3.00
2022-10-05T10:56:31.839Z,3.13
2022-10-05T10:59:44.615Z,3.15
2022-10-05T11:02:39.582Z,2.72
2022-10-05T11:05:48.797Z,2.88
2022-10-05T11:09:04.767Z,3.05
2022-10-05T11:12:22.780Z,2.72
2022-10-05T11:15:24.966Z,3.03
2022-10-05T11:18:20.159Z,3.70
2022-10-05T11:21:24.311Z,2.63
2022-10-05T11:24:41.086Z,2.60
2022-10-05T11:27:54.276Z,2.80
2022-10-05T11:30:55.497Z,3.13
2022-10-05T11:34:00.820Z,3.35
2022-10-05T11:37:20.756Z,3.00
2022-10-05T11:40:14.215Z,3.45
2022-10-05T11:43:07.773Z,3.00
2022-10-05T11:45:56.344Z,2.75
2022-10-05T11:48:44.840Z,2.83
2022-10-05T11:51:35.288Z,3.88
2022-10-05T11:54:26.009Z,2.83
2022-10-05T11:57:01.260Z,3.25
2022-10-05T11:59:35.632Z,4.00
2022-10-05T12:02:27.751Z,2.70
2022-10-05T12:05:04.520Z,3.88
2022-10-05T12:07:42.845Z,3.22
2022-10-05T12:10:24.843Z,3.30
2022-10-05T12:13:11.665Z,3.78
2022-10-05T12:15:48.332Z,3.63
2022-10-05T12:18:27.650Z,3.53
2022-10-05T12:21:00.866Z,3.25
2022-10-05T12:23:34.954Z,3.67
2022-10-05T12:26:07.929Z,3.35
2022-10-05T12:28:39.429Z,3.40
2022-10-05T12:31:25.944Z,3.28
2022-10-05T12:34:04.456Z,3.67
2022-10-05T12:37:02.934Z,3.60
2022-10-05T12:39:40.814Z,3.60
2022-10-05T12:42:24.098Z,3.90
2022-10-05T12:45:21.952Z,3.72
2022-10-05T12:48:08.859Z,3.78
2022-10-05T12:50:44.705Z,4.00
2022-10-05T12:53:28.735Z,4.00
2022-10-05T12:56:05.810Z,4.25
2022-10-05T12:58:44.874Z,4.03
2022-10-05T13:01:27.457Z,3.63
2022-10-05T13:04:04.831Z,3.78
2022-10-05T13:06:43.884Z,3.75
2022-10-05T13:09:19.853Z,3.50
2022-10-05T13:11:51.429Z,3.83
2022-10-05T13:14:37.853Z,3.85
2022-10-05T13:17:15.923Z,3.90
2022-10-05T13:19:51.139Z,4.13
2022-10-05T13:22:36.763Z,3.97
2022-10-05T13:25:22.965Z,4.13
2022-10-05T13:28:01.141Z,4.40
2022-10-05T13:30:30.848Z,4.60
2022-10-05T13:33:05.976Z,4.32
2022-10-05T13:35:45.939Z,4.47
2022-10-05T13:38:36.440Z,4.28
2022-10-05T13:41:15.877Z,3.85
2022-10-05T13:43:52.873Z,3.75
2022-10-05T13:46:29.718Z,3.78
2022-10-05T13:49:14.600Z,4.38
2022-10-05T13:51:49.928Z,4.22
2022-10-05T13:54:27.149Z,4.28
2022-10-05T13:57:06.552Z,4.00
2022-10-05T13:59:46.191Z,3.90
2022-10-05T14:02:24.574Z,4.13
2022-10-05T14:04:59.530Z,3.85
2022-10-05T14:07:34.371Z,4.00
2022-10-05T14:10:08.718Z,4.28
2022-10-05T14:12:42.089Z,4.35
2022-10-05T14:15:22.389Z,4.13
2022-10-05T14:17:52.746Z,4.15
2022-10-05T14:20:25.921Z,3.83
2022-10-05T14:23:00.687Z,3.88
2022-10-05T14:25:31.471Z,3.90
2022-10-05T14:28:07.409Z,3.97
2022-10-05T14:30:35.869Z,4.13
2022-10-05T14:33:17.746Z,4.60
2022-10-05T14:35:49.992Z,4.25
2022-10-05T14:38:22.628Z,3.90
2022-10-05T14:41:14.218Z,3.95
2022-10-05T14:43:54.606Z,4.40
2022-10-05T14:46:28.560Z,3.97
2022-10-05T14:49:13.707Z,4.30
2022-10-05T14:51:43.283Z,3.90
2022-10-05T14:54:27.800Z,4.53
2022-10-05T14:57:08.267Z,4.18
2022-10-05T15:00:01.126Z,4.22
2022-10-05T15:02:59.333Z,5.93
2022-10-05T15:05:32.554Z,3.92
2022-10-05T15:08:13.461Z,4.53
2022-10-05T15:10:44.371Z,4.43
2022-10-05T15:13:18.369Z,3.97
2022-10-05T15:15:54.756Z,3.88
2022-10-05T15:18:32.299Z,4.20
2022-10-05T15:21:24.069Z,4.35
2022-10-05T15:23:57.608Z,4.00
2022-10-05T15:26:45.020Z,3.92
2022-10-05T15:29:38.743Z,4.03
2022-10-05T15:32:17.327Z,3.90
2022-10-05T15:34:55.621Z,3.72
2022-10-05T15:37:27.168Z,4.07
2022-10-05T15:40:03.513Z,4.22
2022-10-05T15:42:36.783Z,4.20
2022-10-05T15:45:15.983Z,3.90
2022-10-05T15:47:53.953Z,3.95
2022-10-05T15:50:30.412Z,3.70
2022-10-05T15:53:07.937Z,4.13
2022-10-05T15:55:43.682Z,3.58
2022-10-05T15:58:46.038Z,3.50
2022-10-05T16:01:20.502Z,3.37
2022-10-05T16:03:52.946Z,3.72
2022-10-05T16:06:51.867Z,4.30
2022-10-05T16:09:48.165Z,4.20
2022-10-05T16:12:33.013Z,3.63
2022-10-05T16:15:16.774Z,4.27
2022-10-05T16:18:03.768Z,3.73
2022-10-05T16:20:42.612Z,3.93
2022-10-05T16:23:22.136Z,3.77
2022-10-05T16:26:01.445Z,4.10
2022-10-05T16:28:43.062Z,3.90
2022-10-05T16:31:18.869Z,3.83
2022-10-05T16:34:01.628Z,4.40
2022-10-05T16:36:43.143Z,4.17
2022-10-05T16:39:20.118Z,4.40
2022-10-05T16:41:55.551Z,4.27
2022-10-05T16:44:39.964Z,4.90
2022-10-05T16:47:36.404Z,4.33
2022-10-05T16:50:16.974Z,4.83
2022-10-05T16:52:50.383Z,5.53
2022-10-05T16:55:30.841Z,5.07
2022-10-05T16:58:00.947Z,4.83
2022-10-05T17:00:38.636Z,4.80
2022-10-05T17:03:28.987Z,5.00
2022-10-05T17:06:24.164Z,5.10
2022-10-05T17:09:27.198Z,5.00
2022-10-05T17:12:04.133Z,5.27
2022-10-05T17:14:45.495Z,5.30
2022-10-05T17:17:40.130Z,4.90
2022-10-05T17:20:41.643Z,5.10
2022-10-05T17:23:32.230Z,6.10
2022-10-05T17:26:12.720Z,5.73
2022-10-05T17:28:47.692Z,5.90
2022-10-05T17:31:19.114Z,6.83
2022-10-05T17:34:26.338Z,5.73
2022-10-05T17:36:59.791Z,5.57
2022-10-05T17:39:48.583Z,5.63
2022-10-05T17:42:49.302Z,5.90
2022-10-05T17:45:50.724Z,5.70
2022-10-05T17:48:37.436Z,5.80
2022-10-05T17:51:36.127Z,6.00
2022-10-05T17:54:39.567Z,5.67
2022-10-05T17:57:20.359Z,5.77
2022-10-05T17:59:59.346Z,6.17
2022-10-05T18:02:42.801Z,6.20
2022-10-05T18:05:28.150Z,5.83
2022-10-05T18:08:33.379Z,5.50
2022-10-05T18:11:18.091Z,6.30
2022-10-05T18:13:50.183Z,6.33
2022-10-05T18:16:51.943Z,5.50
2022-10-05T18:19:23.453Z,6.53
2022-10-05T18:22:04.466Z,5.00
2022-10-05T18:25:03.851Z,5.67
2022-10-05T18:28:00.823Z,5.20
2022-10-05T18:30:38.492Z,5.30
2022-10-05T18:33:49.357Z,5.13
2022-10-05T18:36:37.875Z,5.00
2022-10-05T18:39:15.170Z,4.93
2022-10-05T18:42:06.175Z,5.50
2022-10-05T18:44:41.112Z,5.57
2022-10-05T18:47:17.358Z,5.50
2022-10-05T18:50:01.038Z,5.17
2022-10-05T18:52:49.535Z,4.90
2022-10-05T18:55:25.196Z,5.03
2022-10-05T18:58:10.991Z,5.43
2022-10-05T19:01:01.244Z,5.23
2022-10-05T19:03:40.453Z,5.27
2022-10-05T19:06:19.745Z,5.07
2022-10-05T19:08:56.494Z,7.20
2022-10-05T19:11:37.489Z,6.13
2022-10-05T19:14:19.575Z,5.60
2022-10-05T19:17:05.414Z,5.50
2022-10-05T19:19:49.859Z,5.43
2022-10-05T19:22:32.187Z,4.40
2022-10-05T19:25:22.361Z,4.50
2022-10-05T19:28:03.625Z,5.70
2022-10-05T19:30:44.104Z,4.30
2022-10-05T19:33:32.523Z,4.73
2022-10-05T19:36:18.259Z,15.67
2022-10-05T19:39:00.349Z,6.87
2022-10-05T19:41:42.273Z,4.67
2022-10-05T19:44:23.475Z,4.63
2022-10-05T19:47:02.456Z,5.43
2022-10-05T19:49:44.499Z,4.73
2022-10-05T19:52:22.563Z,5.10
2022-10-05T19:55:06.865Z,5.27
2022-10-05T19:57:40.213Z,5.30
2022-10-05T20:00:16.855Z,4.73
2022-10-05T20:02:45.119Z,5.07
2022-10-05T20:05:15.340Z,5.10
2022-10-05T20:07:44.869Z,4.70
2022-10-05T20:10:26.720Z,4.87
2022-10-05T20:13:20.526Z,5.40
2022-10-05T20:16:25.418Z,4.80
2022-10-05T20:19:13.962Z,5.20
2022-10-05T20:21:47.978Z,6.53
2022-10-05T20:24:21.131Z,6.17
2022-10-05T20:27:16.139Z,5.27
2022-10-05T20:29:46.906Z,5.07
2022-10-05T20:32:18.925Z,5.27
2022-10-05T20:34:49.453Z,5.00
2022-10-05T20:37:20.107Z,5.10
2022-10-05T20:39:51.242Z,6.60
2022-10-05T20:42:24.028Z,5.77
2022-10-05T20:44:56.667Z,5.07
2022-10-05T20:47:30.266Z,4.63
2022-10-05T20:49:59.091Z,5.50
2022-10-05T20:52:27.941Z,5.07
2022-10-05T20:54:58.936Z,4.80
2022-10-05T20:57:27.788Z,4.73
2022-10-05T20:59:59.355Z,4.90
2022-10-05T21:02:27.617Z,5.53
2022-10-05T21:04:56.055Z,5.40
2022-10-05T21:07:25.782Z,5.10
2022-10-05T21:09:55.752Z,5.50
2022-10-05T21:12:25.251Z,5.13
2022-10-05T21:14:54.129Z,5.90
2022-10-05T21:17:22.793Z,5.40
2022-10-05T21:19:52.679Z,5.43
2022-10-05T21:22:20.832Z,5.30
2022-10-05T21:24:51.423Z,5.77
2022-10-05T21:27:21.935Z,5.53
2022-10-05T21:29:52.275Z,5.67
2022-10-05T21:32:20.953Z,5.63
2022-10-05T21:34:49.216Z,5.27
2022-10-05T21:37:18.305Z,5.80
2022-10-05T21:39:47.169Z,8.33
2022-10-05T21:42:15.343Z,12.87
2022-10-05T21:44:44.113Z,5.90
2022-10-05T21:47:13.757Z,5.63
2022-10-05T21:49:46.227Z,5.63
2022-10-05T21:52:17.647Z,5.90
2022-10-05T21:54:46.925Z,5.57
2022-10-05T21:57:15.416Z,5.90
2022-10-05T21:59:45.113Z,6.13
2022-10-05T22:02:18.251Z,6.47
2022-10-05T22:04:46.493Z,5.67
2022-10-05T22:10:12.121Z,6.27
2022-10-05T22:12:41.585Z,5.80
2022-10-05T22:15:11.145Z,6.30
2022-10-05T22:17:46.138Z,8.70
2022-10-05T22:20:15.579Z,6.63
2022-10-05T22:22:47.368Z,5.17
2022-10-05T22:25:18.156Z,5.10
2022-10-05T22:27:47.205Z,5.93
2022-10-05T22:30:15.963Z,5.53
2022-10-05T22:32:47.142Z,5.30
2022-10-05T22:35:15.804Z,5.77
2022-10-05T22:37:45.981Z,5.83
2022-10-05T22:40:15.153Z,5.43
2022-10-05T22:42:43.440Z,6.23
2022-10-05T22:45:11.991Z,6.10
2022-10-05T22:47:46.222Z,6.10
2022-10-05T22:50:16.188Z,5.67
2022-10-05T22:52:44.320Z,5.37
2022-10-05T22:55:13.193Z,6.30
2022-10-05T22:57:42.331Z,6.20
2022-10-05T23:00:15.528Z,5.63
2022-10-05T23:02:45.414Z,5.33
2022-10-05T23:05:19.153Z,5.83
2022-10-05T23:07:49.164Z,5.97
2022-10-05T23:10:20.202Z,6.60
2022-10-05T23:13:00.335Z,5.53
2022-10-05T23:15:30.220Z,6.33
2022-10-05T23:17:58.372Z,6.00
2022-10-05T23:20:29.183Z,5.67
2022-10-05T23:22:58.328Z,5.80
2022-10-05T23:25:27.177Z,5.67
2022-10-05T23:27:56.251Z,5.57
2022-10-05T23:30:25.259Z,5.60
2022-10-05T23:32:53.829Z,5.47
2022-10-05T23:35:23.472Z,6.07
2022-10-05T23:37:55.213Z,6.07
2022-10-05T23:40:23.449Z,6.53
2022-10-05T23:42:51.760Z,5.90
2022-10-05T23:45:21.148Z,5.50
2022-10-05T23:47:55.584Z,5.80
2022-10-05T23:50:26.985Z,5.57
2022-10-05T23:53:02.277Z,5.60
2022-10-05T23:55:30.498Z,5.70
2022-10-05T23:57:58.731Z,6.07
